Time;durP1;ratioP1;P1;durP2;ratioP2;P2;SDS_P1;SDS_P2;PMS_P1;PMS_P2;Temp;Humidity;BMP_temperature;BMP_pressure;BME280_temperature;BME280_humidity;BME280_pressure;Samples;Min_cycle;Max_cycle;Signal;HPM_P1;HPM_P2
2023/01/12 00:01:25;;;;;;;1.33;0.20;;;7.30;99.90;;;;;;5074260;28;20571;-58
2023/01/12 00:03:53;;;;;;;0.97;0.30;;;7.30;99.90;;;;;;5073937;28;20531;-58
2023/01/12 00:06:20;;;;;;;1.60;0.30;;;7.30;99.90;;;;;;5073386;28;20738;-58
2023/01/12 00:08:48;;;;;;;0.60;0.30;;;7.20;99.90;;;;;;5072716;28;20459;-59
2023/01/12 00:11:16;;;;;;;1.48;0.30;;;7.20;99.90;;;;;;5073791;28;20415;-58
2023/01/12 00:13:45;;;;;;;1.40;0.30;;;7.20;99.90;;;;;;5073191;28;20838;-59
2023/01/12 00:19:00;;;;;;;1.00;0.30;;;7.20;99.90;;;;;;5073735;28;20461;-59
2023/01/12 00:21:28;;;;;;;0.70;0.20;;;7.10;99.90;;;;;;5071987;28;20518;-59
2023/01/12 00:23:55;;;;;;;0.95;0.30;;;7.10;99.90;;;;;;5072532;28;20792;-58
2023/01/12 00:26:22;;;;;;;1.60;0.30;;;7.10;99.90;;;;;;5073047;28;20511;-58
2023/01/12 00:28:51;;;;;;;2.13;0.30;;;7.20;99.90;;;;;;5070038;28;20506;-59
2023/01/12 00:31:18;;;;;;;1.60;0.30;;;7.20;99.90;;;;;;5072118;28;20510;-59
2023/01/12 00:33:45;;;;;;;1.40;0.30;;;7.30;99.90;;;;;;5072828;28;20518;-59
2023/01/12 00:36:14;;;;;;;0.60;0.28;;;7.30;99.90;;;;;;5072403;28;20510;-59
2023/01/12 00:38:42;;;;;;;1.40;0.30;;;7.40;99.90;;;;;;5073212;28;20452;-59
2023/01/12 00:41:11;;;;;;;0.75;0.30;;;7.40;99.90;;;;;;5076606;28;20883;-58
2023/01/12 00:46:31;;;;;;;1.10;0.30;;;7.40;99.90;;;;;;5076113;28;20418;-59
2023/01/12 00:48:58;;;;;;;1.30;0.30;;;7.40;99.90;;;;;;5076643;28;20891;-59
2023/01/12 00:51:26;;;;;;;0.60;0.20;;;7.40;99.90;;;;;;5077510;28;20481;-59
2023/01/12 00:53:53;;;;;;;2.10;0.30;;;7.50;99.90;;;;;;5076834;28;20454;-59
2023/01/12 00:56:20;;;;;;;0.77;0.30;;;7.60;99.90;;;;;;5076435;28;20890;-58
2023/01/12 00:58:47;;;;;;;2.60;0.30;;;7.70;99.90;;;;;;5076142;28;20423;-58
2023/01/12 01:01:15;;;;;;;1.92;0.30;;;7.70;99.90;;;;;;5077439;28;20451;-59
2023/01/12 01:03:43;;;;;;;1.60;0.30;;;7.70;99.90;;;;;;5076521;28;20504;-59
2023/01/12 01:06:10;;;;;;;0.90;0.30;;;7.70;99.90;;;;;;5076667;28;20463;-58
2023/01/12 01:08:38;;;;;;;1.50;0.30;;;7.70;99.90;;;;;;5076247;28;20794;-58
2023/01/12 01:11:07;;;;;;;0.70;0.30;;;7.70;99.90;;;;;;5036485;28;20829;-59
2023/01/12 01:13:35;;;;;;;1.35;0.30;;;7.80;99.90;;;;;;5036729;28;20517;-60
2023/01/12 01:16:04;;;;;;;1.55;0.30;;;7.70;99.90;;;;;;5036824;28;20407;-59
2023/01/12 01:18:32;;;;;;;0.90;0.30;;;7.70;99.90;;;;;;5035897;28;20517;-59
2023/01/12 01:21:01;;;;;;;1.48;0.32;;;7.70;99.90;;;;;;5037490;28;20505;-58
2023/01/12 01:23:29;;;;;;;1.50;0.30;;;7.70;99.90;;;;;;5037562;28;20537;-58
2023/01/12 01:26:01;;;;;;;1.17;0.30;;;7.70;99.90;;;;;;5037075;28;20438;-59
2023/01/12 01:28:29;;;;;;;1.10;0.30;;;7.70;99.90;;;;;;5037411;28;20470;-58
2023/01/12 01:31:03;;;;;;;0.70;0.30;;;7.60;99.90;;;;;;5036052;28;20419;-58
2023/01/12 01:33:30;;;;;;;0.95;0.30;;;7.60;99.90;;;;;;5035124;28;20434;-58
2023/01/12 01:35:58;;;;;;;1.70;0.30;;;7.60;99.90;;;;;;5035434;28;20418;-59
2023/01/12 01:38:27;;;;;;;1.10;0.30;;;7.70;99.90;;;;;;5035654;28;20521;-59
2023/01/12 01:40:54;;;;;;;3.65;0.38;;;7.70;99.90;;;;;;5035597;28;20509;-59
2023/01/12 01:43:23;;;;;;;0.60;0.30;;;7.70;99.90;;;;;;5036470;28;20526;-59
2023/01/12 01:45:58;;;;;;;1.10;0.30;;;7.80;99.90;;;;;;5036804;28;20771;-59
2023/01/12 01:48:27;;;;;;;0.68;0.30;;;7.80;99.90;;;;;;5036498;28;20521;-59
2023/01/12 01:50:59;;;;;;;0.68;0.20;;;7.80;99.90;;;;;;5036183;28;20908;-58
2023/01/12 01:53:30;;;;;;;0.90;0.30;;;7.80;99.90;;;;;;5035616;28;20517;-58
2023/01/12 01:56:00;;;;;;;1.75;0.30;;;7.70;99.90;;;;;;5036672;28;20511;-59
2023/01/12 01:58:32;;;;;;;1.80;0.30;;;7.80;99.90;;;;;;5036187;28;20521;-60
2023/01/12 02:00:59;;;;;;;0.90;0.30;;;7.70;99.90;;;;;;5036997;28;20425;-58
2023/01/12 02:03:27;;;;;;;0.80;0.40;;;7.70;99.90;;;;;;5035967;28;20909;-58
2023/01/12 02:05:57;;;;;;;1.20;0.30;;;7.70;99.90;;;;;;5036724;28;20479;-58
2023/01/12 02:08:30;;;;;;;1.77;0.30;;;7.80;99.90;;;;;;5036640;28;20435;-58
2023/01/12 02:10:59;;;;;;;1.10;0.30;;;7.80;99.90;;;;;;5073852;28;20527;-59
2023/01/12 02:16:21;;;;;;;1.70;0.30;;;7.70;99.90;;;;;;5075917;28;20391;-59
2023/01/12 02:19:07;;;;;;;0.60;0.30;;;7.70;99.90;;;;;;5075681;28;20431;-59
2023/01/12 02:22:07;;;;;;;1.45;0.30;;;7.70;99.90;;;;;;5076147;28;20508;-59
2023/01/12 02:25:00;;;;;;;1.48;0.30;;;7.70;99.90;;;;;;5071891;28;20494;-60
2023/01/12 02:28:09;;;;;;;1.50;0.30;;;7.70;99.90;;;;;;5076264;28;20502;-59
2023/01/12 02:31:17;;;;;;;1.58;0.30;;;7.70;99.90;;;;;;5070673;28;20485;-59
2023/01/12 02:33:54;;;;;;;1.50;0.30;;;7.80;99.90;;;;;;5076090;28;20755;-60
2023/01/12 02:36:30;;;;;;;1.30;0.30;;;7.80;99.90;;;;;;5076029;28;20455;-58
2023/01/12 02:39:03;;;;;;;1.00;0.40;;;7.90;99.90;;;;;;5075809;28;20438;-59
2023/01/12 02:44:27;;;;;;;1.00;0.45;;;7.80;99.90;;;;;;5075507;28;20407;-59
2023/01/12 02:46:57;;;;;;;1.05;0.50;;;7.80;99.90;;;;;;5074652;28;20819;-59
2023/01/12 02:49:30;;;;;;;1.80;0.40;;;7.70;99.90;;;;;;5076200;28;20525;-59
2023/01/12 02:52:00;;;;;;;1.90;0.30;;;7.70;99.90;;;;;;5074910;28;20452;-59
2023/01/12 02:54:30;;;;;;;1.00;0.30;;;7.70;99.90;;;;;;5075374;28;20794;-59
2023/01/12 02:57:03;;;;;;;1.02;0.30;;;7.70;99.90;;;;;;5074425;28;20933;-59
2023/01/12 02:59:33;;;;;;;0.63;0.20;;;7.70;99.90;;;;;;5075370;28;20463;-60
2023/01/12 03:02:04;;;;;;;1.10;0.30;;;7.80;99.90;;;;;;5074471;28;20845;-59
2023/01/12 03:04:33;;;;;;;2.38;0.30;;;7.80;99.90;;;;;;5074633;28;20455;-59
2023/01/12 03:07:38;;;;;;;1.60;0.40;;;7.70;99.90;;;;;;5073942;28;20530;-59
2023/01/12 03:10:53;;;;;;;0.98;0.30;;;7.70;99.90;;;;;;5075322;28;20518;-60
2023/01/12 03:13:21;;;;;;;1.08;0.30;;;7.60;99.90;;;;;;5073509;28;20459;-61
2023/01/12 03:15:53;;;;;;;1.02;0.30;;;7.60;99.90;;;;;;5074944;28;20506;-61
2023/01/12 03:18:28;;;;;;;1.25;0.40;;;7.60;99.90;;;;;;5073920;28;20910;-60
2023/01/12 03:21:03;;;;;;;1.50;0.30;;;7.50;99.90;;;;;;5075339;28;20443;-60
2023/01/12 03:23:39;;;;;;;0.90;0.20;;;7.60;99.90;;;;;;5074166;28;20522;-61
2023/01/12 03:26:09;;;;;;;0.90;0.20;;;7.60;99.90;;;;;;5073478;28;20782;-60
2023/01/12 03:28:40;;;;;;;0.70;0.30;;;7.60;99.90;;;;;;5072154;28;20510;-61
2023/01/12 03:31:10;;;;;;;0.90;0.20;;;7.50;99.90;;;;;;5073834;28;20777;-60
2023/01/12 03:33:39;;;;;;;1.20;0.30;;;7.50;99.90;;;;;;5073100;28;20519;-61
2023/01/12 03:36:14;;;;;;;1.60;0.30;;;7.50;99.90;;;;;;5074119;28;20886;-60
2023/01/12 03:38:49;;;;;;;1.60;0.30;;;7.60;99.90;;;;;;5073207;28;20524;-61
2023/01/12 03:41:26;;;;;;;0.80;0.30;;;7.50;99.90;;;;;;5074636;28;20458;-60
2023/01/12 03:43:59;;;;;;;2.30;0.50;;;7.50;99.90;;;;;;5073557;28;20423;-60
2023/01/12 03:46:33;;;;;;;2.10;0.40;;;7.40;99.90;;;;;;5074196;28;20917;-60
2023/01/12 03:49:06;;;;;;;1.20;0.33;;;7.50;99.90;;;;;;5073469;28;20463;-60
2023/01/12 03:51:39;;;;;;;1.67;0.40;;;7.50;99.90;;;;;;5073982;28;20420;-60
2023/01/12 03:54:09;;;;;;;0.80;0.30;;;7.40;99.90;;;;;;5074158;28;20530;-60
2023/01/12 03:56:37;;;;;;;1.58;0.30;;;7.50;99.90;;;;;;5074856;28;20420;-61
2023/01/12 03:59:05;;;;;;;1.27;0.30;;;7.50;99.90;;;;;;5073785;28;20534;-61
2023/01/12 04:01:32;;;;;;;1.10;0.37;;;7.50;99.90;;;;;;5074844;28;20514;-60
2023/01/12 04:03:59;;;;;;;1.30;0.30;;;7.50;99.90;;;;;;5073732;28;20523;-60
2023/01/12 04:06:27;;;;;;;1.85;0.30;;;7.50;99.90;;;;;;5074184;28;20522;-61
2023/01/12 04:08:55;;;;;;;1.02;0.30;;;7.50;99.90;;;;;;5073546;28;20435;-60
2023/01/12 04:14:07;;;;;;;1.65;0.40;;;7.60;99.90;;;;;;5072167;28;20410;-61
2023/01/12 04:16:34;;;;;;;2.03;0.30;;;7.60;99.90;;;;;;5073647;28;20495;-61
2023/01/12 04:19:01;;;;;;;0.80;0.30;;;7.70;99.90;;;;;;5073651;28;20507;-61
2023/01/12 04:24:15;;;;;;;1.40;0.30;;;7.70;99.90;;;;;;5073744;28;20719;-61
2023/01/12 04:26:42;;;;;;;1.40;0.30;;;7.80;99.90;;;;;;5073228;28;20470;-59
2023/01/12 04:29:10;;;;;;;1.63;0.30;;;7.90;99.90;;;;;;5071537;28;20913;-61
2023/01/12 04:31:38;;;;;;;1.20;0.25;;;7.90;99.90;;;;;;5074331;28;20420;-60
2023/01/12 04:34:05;;;;;;;1.20;0.40;;;7.90;99.90;;;;;;5074002;28;20530;-61
2023/01/12 04:36:32;;;;;;;1.20;0.30;;;8.10;99.90;;;;;;5073739;28;20418;-61
2023/01/12 04:39:00;;;;;;;1.80;0.40;;;8.10;99.90;;;;;;5073243;28;20463;-61
2023/01/12 04:41:28;;;;;;;0.80;0.30;;;8.10;99.90;;;;;;5073997;28;20502;-63
2023/01/12 04:43:55;;;;;;;1.92;0.40;;;8.10;99.90;;;;;;5073849;28;20467;-63
2023/01/12 04:46:22;;;;;;;2.37;0.30;;;8.10;99.90;;;;;;5073032;28;20816;-62
2023/01/12 04:48:50;;;;;;;1.20;0.30;;;8.10;99.90;;;;;;5074028;28;20522;-63
2023/01/12 04:51:17;;;;;;;1.40;0.40;;;8.00;99.90;;;;;;5072738;28;20506;-63
2023/01/12 04:53:46;;;;;;;2.08;0.30;;;8.00;99.90;;;;;;5073436;28;20518;-63
2023/01/12 04:56:14;;;;;;;1.20;0.40;;;8.00;99.90;;;;;;5072973;28;20438;-63
2023/01/12 04:58:43;;;;;;;1.00;0.30;;;8.00;99.90;;;;;;5073836;28;20843;-63
2023/01/12 05:01:11;;;;;;;1.00;0.40;;;8.00;99.90;;;;;;5072652;28;20494;-61
2023/01/12 05:03:38;;;;;;;1.30;0.30;;;8.00;99.90;;;;;;5073405;28;20473;-60
2023/01/12 05:06:06;;;;;;;0.60;0.30;;;7.90;99.90;;;;;;5071581;28;20538;-60
2023/01/12 05:11:20;;;;;;;1.23;0.30;;;8.00;99.90;;;;;;5070241;28;20419;-62
2023/01/12 05:13:48;;;;;;;2.10;0.32;;;8.00;99.90;;;;;;5072154;28;20419;-62
2023/01/12 05:16:17;;;;;;;1.02;0.30;;;8.00;99.90;;;;;;5072009;28;20448;-62
2023/01/12 05:18:46;;;;;;;1.92;0.30;;;8.00;99.90;;;;;;5072374;28;20518;-62
2023/01/12 05:21:14;;;;;;;1.45;0.40;;;8.10;99.90;;;;;;5072524;28;20415;-62
2023/01/12 05:23:41;;;;;;;1.13;0.50;;;8.10;99.90;;;;;;5072589;28;20450;-62
2023/01/12 05:26:09;;;;;;;1.30;0.30;;;8.10;99.90;;;;;;5072950;28;20943;-62
2023/01/12 05:28:37;;;;;;;1.50;0.30;;;8.20;99.90;;;;;;5077219;28;20518;-63
2023/01/12 05:31:08;;;;;;;1.92;0.40;;;8.20;99.90;;;;;;5075265;28;20554;-63
2023/01/12 05:33:35;;;;;;;1.20;0.40;;;8.20;99.90;;;;;;5076328;28;20526;-62
2023/01/12 05:36:05;;;;;;;0.93;0.30;;;8.20;99.90;;;;;;5076850;28;20510;-62
2023/01/12 05:38:32;;;;;;;1.00;0.30;;;8.30;99.90;;;;;;5075318;28;20732;-62
2023/01/12 05:41:00;;;;;;;0.73;0.30;;;8.40;99.90;;;;;;5075787;28;20851;-62
2023/01/12 05:46:15;;;;;;;2.60;0.40;;;8.40;99.90;;;;;;5075059;28;20403;-63
2023/01/12 05:48:42;;;;;;;1.50;0.30;;;8.40;99.90;;;;;;5075349;28;20462;-62
2023/01/12 05:51:11;;;;;;;2.42;0.30;;;8.40;99.90;;;;;;5075858;28;20549;-63
2023/01/12 05:53:38;;;;;;;1.50;0.30;;;8.40;99.90;;;;;;5075719;28;20586;-63
2023/01/12 05:56:08;;;;;;;3.20;0.40;;;8.40;99.90;;;;;;5074909;28;20510;-63
2023/01/12 05:58:35;;;;;;;2.00;0.30;;;8.30;99.90;;;;;;5073604;28;20510;-63
2023/01/12 06:01:07;;;;;;;2.05;0.40;;;8.30;99.90;;;;;;5074328;28;20502;-62
2023/01/12 06:03:36;;;;;;;0.80;0.30;;;8.30;99.90;;;;;;5073026;28;20435;-63
2023/01/12 06:06:04;;;;;;;2.05;0.30;;;8.30;99.90;;;;;;5076049;28;20902;-63
2023/01/12 06:08:31;;;;;;;1.60;0.30;;;8.30;99.90;;;;;;5075492;28;20471;-63
2023/01/12 06:11:01;;;;;;;1.98;0.40;;;8.30;99.90;;;;;;5073832;28;20522;-63
2023/01/12 06:16:13;;;;;;;1.97;0.30;;;8.20;99.90;;;;;;5074706;28;20549;-63
2023/01/12 06:18:42;;;;;;;2.50;0.50;;;8.10;99.90;;;;;;5075118;28;20514;-63
2023/01/12 06:21:10;;;;;;;2.63;0.40;;;8.20;99.90;;;;;;5073809;28;20502;-63
2023/01/12 06:23:37;;;;;;;2.42;0.30;;;8.10;99.90;;;;;;5073108;28;20432;-63
2023/01/12 06:26:06;;;;;;;1.88;0.40;;;8.20;99.90;;;;;;5074412;28;20423;-63
2023/01/12 06:28:34;;;;;;;1.40;0.40;;;8.30;99.90;;;;;;5074081;28;20467;-63
2023/01/12 06:31:04;;;;;;;0.75;0.40;;;8.30;99.90;;;;;;5073166;28;20506;-63
2023/01/12 06:33:32;;;;;;;1.92;0.40;;;8.20;99.90;;;;;;5072431;28;20918;-63
2023/01/12 06:36:01;;;;;;;1.00;0.30;;;8.20;99.90;;;;;;5072902;28;20576;-63
2023/01/12 06:38:30;;;;;;;1.30;0.30;;;8.20;99.90;;;;;;5072096;28;20779;-63
2023/01/12 06:41:02;;;;;;;1.20;0.40;;;8.20;99.90;;;;;;5072234;28;20772;-63
2023/01/12 06:43:29;;;;;;;0.80;0.20;;;8.20;99.90;;;;;;5071768;28;20444;-63
2023/01/12 06:45:56;;;;;;;1.30;0.30;;;8.20;99.90;;;;;;5070838;28;20523;-63
2023/01/12 06:48:24;;;;;;;2.53;0.30;;;8.20;99.90;;;;;;5071466;28;20467;-63
2023/01/12 06:50:53;;;;;;;2.78;0.30;;;8.20;99.90;;;;;;5071903;28;20423;-63
2023/01/12 06:53:22;;;;;;;2.50;0.40;;;8.20;99.90;;;;;;5070935;28;20485;-64
2023/01/12 06:55:49;;;;;;;1.30;0.40;;;8.10;99.90;;;;;;5071695;28;20503;-63
2023/01/12 06:58:17;;;;;;;1.45;0.30;;;8.20;99.90;;;;;;5073095;28;20459;-63
2023/01/12 07:00:45;;;;;;;2.20;0.60;;;8.10;99.90;;;;;;5071357;28;20418;-63
2023/01/12 07:03:18;;;;;;;0.82;0.30;;;8.10;99.90;;;;;;5072617;28;20527;-63
2023/01/12 07:05:45;;;;;;;1.52;0.40;;;8.20;99.90;;;;;;5066322;28;20930;-63
2023/01/12 07:08:17;;;;;;;1.70;0.40;;;8.20;99.90;;;;;;5072710;28;20463;-63
2023/01/12 07:10:46;;;;;;;0.90;0.30;;;8.30;99.90;;;;;;5069923;28;20762;-63
2023/01/12 07:13:13;;;;;;;1.60;0.30;;;8.30;99.90;;;;;;5072563;28;20466;-63
2023/01/12 07:15:41;;;;;;;2.05;0.30;;;8.40;99.90;;;;;;5073635;28;20514;-63
2023/01/12 07:18:08;;;;;;;1.10;0.30;;;8.40;99.90;;;;;;5073677;28;20503;-63
2023/01/12 07:20:35;;;;;;;1.90;0.30;;;8.40;99.90;;;;;;5071693;28;20938;-63
2023/01/12 07:23:03;;;;;;;1.60;0.50;;;8.40;99.90;;;;;;5073630;28;20467;-63
2023/01/12 07:25:30;;;;;;;1.70;0.50;;;8.40;99.90;;;;;;5071570;28;20514;-63
2023/01/12 07:27:59;;;;;;;1.33;0.30;;;8.40;99.90;;;;;;5070200;28;20797;-63
2023/01/12 07:30:27;;;;;;;1.30;0.30;;;8.50;99.90;;;;;;5073137;28;20427;-63
2023/01/12 07:32:54;;;;;;;1.97;0.30;;;8.50;99.90;;;;;;5072815;28;20439;-61
2023/01/12 07:35:23;;;;;;;2.00;0.30;;;8.50;99.90;;;;;;5071946;28;20510;-62
2023/01/12 07:37:52;;;;;;;0.80;0.35;;;8.50;99.90;;;;;;5072438;28;20495;-62
2023/01/12 07:40:20;;;;;;;1.40;0.30;;;8.50;99.90;;;;;;5072766;28;20426;-62
2023/01/12 07:42:47;;;;;;;0.82;0.30;;;8.60;99.90;;;;;;5072043;28;20503;-60
2023/01/12 07:45:16;;;;;;;1.90;0.30;;;8.60;99.90;;;;;;5069973;28;20512;-59
2023/01/12 07:47:43;;;;;;;1.30;0.30;;;8.70;99.90;;;;;;5070748;28;20876;-59
2023/01/12 07:50:11;;;;;;;2.30;0.50;;;8.70;99.90;;;;;;5069932;28;20739;-60
2023/01/12 07:52:40;;;;;;;2.03;0.40;;;8.70;99.90;;;;;;5070604;28;20522;-61
2023/01/12 07:55:07;;;;;;;1.40;0.30;;;8.80;99.90;;;;;;5070683;28;20731;-60
2023/01/12 07:57:36;;;;;;;1.02;0.40;;;8.80;99.90;;;;;;5071255;28;20507;-60
2023/01/12 08:00:04;;;;;;;2.00;0.30;;;8.90;99.90;;;;;;5071807;28;20439;-60
2023/01/12 08:02:33;;;;;;;2.10;0.30;;;8.90;99.90;;;;;;5071639;28;20423;-60
2023/01/12 08:05:01;;;;;;;1.10;0.30;;;8.90;99.90;;;;;;5070534;28;20428;-60
2023/01/12 08:07:31;;;;;;;1.60;0.30;;;8.90;99.90;;;;;;5071316;28;20514;-61
2023/01/12 08:09:58;;;;;;;0.65;0.30;;;8.90;99.90;;;;;;5072277;28;20506;-61
2023/01/12 08:12:25;;;;;;;2.58;0.40;;;8.70;99.90;;;;;;5072707;28;20693;-61
2023/01/12 08:14:52;;;;;;;1.20;0.40;;;8.70;99.90;;;;;;5071351;28;20809;-61
2023/01/12 08:17:23;;;;;;;1.67;0.30;;;8.80;99.90;;;;;;5072606;28;20426;-60
2023/01/12 08:19:56;;;;;;;1.90;0.40;;;8.80;99.90;;;;;;5071508;28;20509;-60
2023/01/12 08:22:29;;;;;;;0.50;0.20;;;8.70;99.90;;;;;;5072774;28;20485;-60
2023/01/12 08:25:01;;;;;;;1.08;0.20;;;8.70;99.90;;;;;;5072394;28;20844;-60
2023/01/12 08:27:30;;;;;;;1.60;0.30;;;8.70;99.90;;;;;;5070620;28;20871;-60
2023/01/12 08:29:58;;;;;;;1.10;0.30;;;8.90;99.90;;;;;;5072509;28;20516;-60
2023/01/12 08:32:28;;;;;;;1.17;0.20;;;8.90;99.90;;;;;;5070121;28;20840;-61
2023/01/12 08:35:00;;;;;;;1.42;0.30;;;9.00;99.90;;;;;;5067990;28;20558;-61
2023/01/12 08:37:29;;;;;;;1.67;0.30;;;8.90;99.90;;;;;;5057620;28;20499;-61
2023/01/12 08:39:57;;;;;;;0.80;0.30;;;8.90;99.90;;;;;;5069587;28;20428;-62
2023/01/12 08:42:26;;;;;;;1.70;0.30;;;8.90;99.90;;;;;;5067797;28;20515;-62
2023/01/12 08:44:53;;;;;;;1.25;0.40;;;8.80;99.90;;;;;;5068010;28;20438;-61
2023/01/12 08:47:25;;;;;;;2.27;0.40;;;8.90;99.90;;;;;;5063494;28;20532;-61
2023/01/12 08:49:53;;;;;;;0.70;0.30;;;8.90;99.90;;;;;;5069058;28;20428;-63
2023/01/12 08:52:22;;;;;;;0.90;0.30;;;8.90;99.90;;;;;;5070579;28;20906;-63
2023/01/12 08:54:49;;;;;;;0.80;0.30;;;8.90;99.90;;;;;;5068810;28;20856;-59
2023/01/12 08:57:18;;;;;;;1.40;0.30;;;8.90;99.90;;;;;;5068180;28;20827;-58
2023/01/12 08:59:45;;;;;;;0.80;0.30;;;8.90;99.90;;;;;;5053922;28;20520;-59
2023/01/12 09:02:13;;;;;;;1.50;0.30;;;9.10;99.90;;;;;;5069467;28;20902;-59
2023/01/12 09:04:40;;;;;;;1.73;0.20;;;9.00;99.90;;;;;;5076694;28;20952;-58
2023/01/12 09:07:08;;;;;;;2.40;0.40;;;9.00;99.90;;;;;;5075798;28;20912;-58
2023/01/12 09:09:37;;;;;;;0.80;0.30;;;9.10;99.90;;;;;;5076289;28;20435;-58
2023/01/12 09:12:05;;;;;;;0.97;0.30;;;9.10;99.90;;;;;;5076567;28;20506;-59
2023/01/12 09:14:37;;;;;;;1.50;0.30;;;9.10;99.90;;;;;;5075411;28;20427;-59
2023/01/12 09:17:05;;;;;;;1.40;0.30;;;9.10;99.90;;;;;;5075017;28;20423;-57
2023/01/12 09:19:32;;;;;;;1.02;0.30;;;9.00;99.90;;;;;;5074164;28;20442;-59
2023/01/12 09:22:00;;;;;;;0.80;0.30;;;8.90;99.90;;;;;;5074975;28;21165;-58
2023/01/12 09:24:27;;;;;;;0.80;0.30;;;9.00;99.90;;;;;;5073672;28;20629;-58
2023/01/12 09:26:55;;;;;;;0.60;0.20;;;9.00;99.90;;;;;;5072514;28;20451;-58
2023/01/12 09:29:23;;;;;;;0.77;0.40;;;9.00;99.90;;;;;;5074183;28;20878;-58
2023/01/12 09:31:50;;;;;;;1.00;0.20;;;9.20;99.90;;;;;;5074995;28;20420;-57
2023/01/12 09:34:17;;;;;;;0.98;0.20;;;9.20;99.90;;;;;;5072044;28;20522;-58
2023/01/12 09:36:44;;;;;;;1.58;0.28;;;9.20;99.90;;;;;;5074941;28;20534;-58
2023/01/12 09:39:16;;;;;;;1.00;0.20;;;9.20;99.90;;;;;;5072861;28;20442;-55
2023/01/12 09:47:27;;;;;;;2.10;0.30;;;9.30;99.90;;;;;;5040677;28;20514;-57
2023/01/12 09:50:00;;;;;;;1.20;0.30;;;9.40;99.90;;;;;;5074012;28;20436;-58
2023/01/12 09:52:31;;;;;;;2.90;0.30;;;9.50;99.90;;;;;;5071304;28;20502;-58
2023/01/12 09:54:58;;;;;;;1.48;0.20;;;9.60;99.90;;;;;;5072259;28;20685;-57
2023/01/12 09:57:55;;;;;;;1.90;0.30;;;9.60;99.90;;;;;;5071815;28;20510;-58
2023/01/12 10:00:26;;;;;;;1.50;0.25;;;9.50;99.90;;;;;;5069347;28;20597;-56
2023/01/12 10:03:06;;;;;;;0.60;0.20;;;9.70;99.90;;;;;;5069973;28;20858;-57
2023/01/12 10:05:38;;;;;;;1.27;0.30;;;9.60;99.90;;;;;;5071152;28;20928;-55
2023/01/12 10:08:09;;;;;;;0.45;0.20;;;9.60;99.90;;;;;;5071668;28;20428;-58
2023/01/12 10:10:36;;;;;;;1.40;0.20;;;9.70;99.90;;;;;;5073020;28;20510;-58
2023/01/12 10:13:09;;;;;;;1.80;0.30;;;9.60;99.90;;;;;;5070622;28;20792;-58
2023/01/12 10:15:47;;;;;;;1.10;0.30;;;9.70;99.90;;;;;;5070086;28;20626;-58
2023/01/12 10:18:21;;;;;;;0.40;0.20;;;9.70;99.90;;;;;;5072707;28;20420;-58
2023/01/12 10:20:48;;;;;;;1.40;0.30;;;9.80;99.90;;;;;;5074291;28;20492;-59
2023/01/12 10:23:23;;;;;;;2.17;0.30;;;9.80;99.90;;;;;;5073094;28;20470;-58
2023/01/12 10:25:56;;;;;;;0.70;0.20;;;9.80;99.90;;;;;;5074120;28;20423;-58
2023/01/12 10:28:25;;;;;;;0.50;0.20;;;9.80;99.90;;;;;;5075015;28;20431;-57
2023/01/12 10:30:54;;;;;;;1.40;0.30;;;9.80;99.90;;;;;;5075443;28;20503;-56
2023/01/12 10:33:23;;;;;;;0.60;0.30;;;9.90;99.90;;;;;;5074049;28;20428;-57
2023/01/12 10:36:00;;;;;;;1.08;0.20;;;10.10;99.90;;;;;;5072693;28;20437;-54
2023/01/12 10:38:30;;;;;;;1.93;0.30;;;10.20;99.90;;;;;;5073131;28;20446;-56
2023/01/12 10:41:16;;;;;;;1.20;0.28;;;10.20;99.90;;;;;;5074322;28;20443;-57
2023/01/12 10:43:45;;;;;;;0.80;0.30;;;10.30;99.90;;;;;;5073070;28;20426;-55
2023/01/12 10:46:16;;;;;;;1.90;0.30;;;10.30;99.90;;;;;;5068945;28;20841;-56
2023/01/12 10:48:45;;;;;;;0.60;0.20;;;10.30;99.90;;;;;;5070076;28;21075;-56
2023/01/12 10:51:27;;;;;;;1.10;0.20;;;10.20;99.90;;;;;;5073489;28;20427;-56
2023/01/12 10:54:00;;;;;;;1.40;0.30;;;10.20;99.90;;;;;;5073876;28;20455;-56
2023/01/12 10:56:31;;;;;;;0.60;0.20;;;10.20;99.90;;;;;;5073467;28;20462;-53
2023/01/12 10:59:02;;;;;;;0.47;0.20;;;10.10;99.90;;;;;;5073383;28;20419;-56
2023/01/12 11:01:52;;;;;;;0.77;0.20;;;10.30;99.90;;;;;;5071654;28;20415;-54
2023/01/12 11:04:21;;;;;;;1.00;0.20;;;10.30;99.90;;;;;;5069771;28;20515;-57
2023/01/12 11:07:01;;;;;;;0.90;0.20;;;10.30;99.90;;;;;;5073300;28;20690;-56
2023/01/12 11:09:30;;;;;;;0.60;0.20;;;10.30;99.90;;;;;;5071560;28;20522;-56
2023/01/12 11:12:00;;;;;;;0.90;0.20;;;10.30;99.90;;;;;;5069191;28;20515;-57
2023/01/12 11:14:31;;;;;;;0.50;0.20;;;10.20;99.90;;;;;;5057398;28;20429;-56
2023/01/12 11:17:30;;;;;;;0.47;0.20;;;10.20;99.90;;;;;;5052082;28;20417;-57
2023/01/12 11:20:00;;;;;;;0.40;0.10;;;10.20;99.90;;;;;;5062944;28;20543;-55
2023/01/12 11:22:33;;;;;;;0.55;0.20;;;10.20;99.90;;;;;;5068795;28;20514;-55
2023/01/12 11:25:03;;;;;;;0.80;0.10;;;10.20;99.90;;;;;;5071269;28;20427;-54
2023/01/12 11:27:37;;;;;;;1.27;0.20;;;10.30;99.90;;;;;;5071773;28;20853;-54
2023/01/12 11:30:14;;;;;;;0.50;0.30;;;10.30;99.90;;;;;;5073902;28;20431;-57
2023/01/12 11:32:49;;;;;;;0.55;0.20;;;10.40;99.90;;;;;;5070364;28;20424;-57
2023/01/12 11:35:28;;;;;;;0.52;0.15;;;10.40;99.90;;;;;;5070103;28;20898;-55
2023/01/12 11:38:00;;;;;;;0.50;0.20;;;10.30;99.90;;;;;;5071062;28;20454;-58
2023/01/12 11:40:31;;;;;;;0.50;0.20;;;10.30;99.90;;;;;;5070277;28;20566;-58
2023/01/12 11:45:54;;;;;;;1.20;0.20;;;10.30;99.90;;;;;;5071366;28;20403;-59
2023/01/12 11:48:30;;;;;;;0.40;0.20;;;10.30;99.90;;;;;;5068206;28;20431;-56
2023/01/12 11:50:59;;;;;;;0.80;0.20;;;10.40;99.90;;;;;;5072339;28;20454;-57
2023/01/12 11:53:26;;;;;;;0.50;0.20;;;10.30;99.90;;;;;;5071231;28;20435;-59
2023/01/12 11:56:05;;;;;;;0.70;0.20;;;10.40;99.90;;;;;;5070368;28;20526;-58
2023/01/12 11:58:38;;;;;;;0.73;0.20;;;10.40;99.90;;;;;;5070459;28;20728;-58
2023/01/12 12:01:13;;;;;;;0.90;0.20;;;10.40;99.90;;;;;;5072807;28;20451;-58
2023/01/12 12:03:54;;;;;;;0.77;0.20;;;10.50;99.90;;;;;;5071840;28;20508;-57
2023/01/12 12:06:44;;;;;;;0.80;0.20;;;10.60;99.90;;;;;;5071529;28;20434;-57
2023/01/12 12:09:26;;;;;;;0.50;0.20;;;10.50;99.90;;;;;;5071459;28;20550;-56
2023/01/12 12:11:57;;;;;;;0.80;0.20;;;10.40;99.90;;;;;;5070681;28;20482;-57
2023/01/12 12:14:37;;;;;;;0.90;0.20;;;10.60;99.90;;;;;;5070247;28;20597;-57
2023/01/12 12:17:11;;;;;;;0.70;0.20;;;10.50;99.90;;;;;;5068499;28;20784;-56
2023/01/12 12:19:47;;;;;;;1.30;0.30;;;10.40;99.90;;;;;;5069804;28;20596;-57
2023/01/12 12:22:33;;;;;;;0.95;0.20;;;10.40;99.90;;;;;;5070486;28;20742;-58
2023/01/12 12:25:16;;;;;;;0.40;0.20;;;10.40;99.90;;;;;;5061152;28;20518;-57
2023/01/12 12:28:03;;;;;;;0.90;0.20;;;10.40;99.90;;;;;;5060742;28;20439;-57
2023/01/12 12:30:52;;;;;;;0.93;0.20;;;10.50;99.90;;;;;;5067287;28;20514;-55
2023/01/12 12:33:28;;;;;;;0.80;0.20;;;10.50;99.90;;;;;;5082094;28;20428;-56
2023/01/12 12:36:09;;;;;;;0.70;0.20;;;10.50;99.90;;;;;;5070737;28;20822;-56
2023/01/12 12:38:54;;;;;;;0.60;0.20;;;10.40;99.90;;;;;;5067385;28;20431;-57
2023/01/12 12:50:44;;;;;;;0.50;0.10;;;10.30;99.90;;;;;;5032145;28;20523;-53
2023/01/12 12:53:25;;;;;;;0.40;0.20;;;10.50;99.90;;;;;;5071114;28;20438;-54
2023/01/12 12:55:56;;;;;;;0.50;0.20;;;10.50;99.90;;;;;;5068781;28;20442;-57
2023/01/12 12:58:29;;;;;;;0.77;0.20;;;10.60;99.90;;;;;;5067861;28;20435;-58
2023/01/12 13:01:31;;;;;;;0.77;0.20;;;10.60;99.90;;;;;;5069385;28;20583;-59
2023/01/12 13:04:02;;;;;;;0.80;0.10;;;10.70;99.90;;;;;;5067435;28;20435;-60
2023/01/12 13:06:31;;;;;;;0.70;0.20;;;10.70;99.90;;;;;;5073605;28;20830;-59
2023/01/12 13:08:59;;;;;;;0.68;0.20;;;10.60;99.90;;;;;;5071326;28;20517;-58
2023/01/12 13:11:49;;;;;;;0.70;0.20;;;10.60;99.90;;;;;;5072318;28;20510;-59
2023/01/12 13:14:20;;;;;;;0.50;0.20;;;10.70;99.90;;;;;;5072548;28;20427;-58
2023/01/12 13:16:50;;;;;;;0.50;0.20;;;10.70;99.90;;;;;;5069470;28;20875;-58
2023/01/12 13:19:37;;;;;;;0.60;0.20;;;10.70;99.90;;;;;;5068931;28;20541;-59
2023/01/12 13:22:28;;;;;;;0.70;0.20;;;10.60;99.90;;;;;;5070723;28;20915;-59
2023/01/12 13:24:57;;;;;;;0.50;0.20;;;10.70;99.90;;;;;;5069338;28;20514;-57
2023/01/12 13:27:51;;;;;;;0.80;0.10;;;10.70;99.90;;;;;;5067374;28;20510;-59
2023/01/12 13:30:24;;;;;;;0.43;0.20;;;10.70;99.90;;;;;;5067298;28;20436;-60
2023/01/12 13:32:59;;;;;;;0.50;0.20;;;10.70;99.90;;;;;;5067403;28;20451;-60
2023/01/12 13:35:59;;;;;;;0.40;0.20;;;10.70;99.90;;;;;;5069144;28;20815;-57
2023/01/12 13:38:55;;;;;;;0.70;0.20;;;10.60;99.90;;;;;;5066632;28;20716;-58
2023/01/12 13:44:20;;;;;;;0.50;0.20;;;10.60;99.90;;;;;;5071721;28;20858;-58
2023/01/12 13:46:50;;;;;;;0.50;0.20;;;10.50;99.90;;;;;;5071849;28;20515;-58
2023/01/12 13:49:35;;;;;;;0.60;0.10;;;10.50;99.90;;;;;;5074542;28;20489;-57
2023/01/12 13:52:05;;;;;;;0.55;0.20;;;10.50;99.90;;;;;;5073855;28;20434;-57
2023/01/12 13:54:34;;;;;;;0.30;0.10;;;10.60;99.90;;;;;;5074719;28;20473;-58
2023/01/12 13:57:04;;;;;;;0.90;0.20;;;10.60;99.90;;;;;;5073419;28;20430;-58
2023/01/12 13:59:33;;;;;;;0.40;0.20;;;10.60;99.90;;;;;;5074066;28;20432;-58
2023/01/12 14:02:02;;;;;;;0.40;0.20;;;10.50;99.90;;;;;;5074618;28;20716;-58
2023/01/12 14:04:45;;;;;;;0.40;0.10;;;10.50;99.90;;;;;;5075379;28;20427;-59